Thunderstorms From: 22-05-2018 15:00 Until: 23-05-2018 15:00 warning for: Thunderstorms Level: Yellow info button

Although rather usual in this region, locally or potentially dangerous phenomena are expected. (such as local winds, summer thunderstorms, rising streams or high waves) Be aware and pay attention to the latest weather updates, especially if you carry out activities exposed to weather or close to a stream or shoreline. 


Meteo18 Weather Cam more information Meteo18 Weather Cam


warning for Thunderstorms more information blitzortung!


Rain radar more information rain snow radar


Visit our other weather sites:

Template documentation
and downloads

And another site



Weather Underground History page Text

Daily Summary for June 22, 2017 Units:  Metric    English   Both
« Previous Day
Next Day »
Daily Weekly Monthly Yearly Custom
  High: Low: Average:
Temperature: -17.8 °C -7.2 °C -2.6 °C
Dew Point: -17.8 °C -12.7 °C -8.9 °C
Humidity: Humidity % 22 % 54 %
Wind Speed: 0 km/h 0 km/h 8.4 km/h
Wind Gust: 0 km/h - -
Wind:- - WSW
Pressure: 0 hPa 34371.3 hPa -
Precipitation: 0 mm    
Historical Graphs
 
 
Tabular Data for June 22, 2017
Time Temperature Dew Point Pressure Wind Wind Speed Wind Gust Humidity Rainfall Rate (Hourly)
-17.8 °C -17.8 °C 0 hPa Calm     Humidity % 0 mm
00:02 -3.6 °C -6.6 °C 34395 hPa Calm     72 % 0 mm
00:07 -3.6 °C -6.6 °C 34395 hPa Calm     72 % 0 mm
00:12 -3.7 °C -6.6 °C 34395 hPa Calm     73 % 0 mm
00:17 -3.8 °C -6.6 °C 34395 hPa Calm     74 % 0 mm
00:22 -3.8 °C -6.6 °C 34395 hPa Calm     74 % 0 mm
00:27 -3.9 °C -6.7 °C 34395 hPa Calm     74 % 0 mm
00:32 -4 °C -6.6 °C 34395 hPa Calm     75 % 0 mm
00:37 -4.1 °C -6.6 °C 34395 hPa Calm     76 % 0 mm
00:42 -4.1 °C -6.7 °C 34395 hPa Calm     75 % 0 mm
00:52 -4.2 °C -6.7 °C 34395 hPa Calm     76 % 0 mm
01:02 -4 °C -6.6 °C 34395 hPa Calm     75 % 0 mm
01:12 -4.2 °C -6.7 °C 34395 hPa Calm     76 % 0 mm
01:17 -4.3 °C -6.7 °C 34395 hPa Calm     77 % 0 mm
01:22 -4.5 °C -6.8 °C 34395 hPa Calm     78 % 0 mm
01:32 -4.7 °C -6.8 °C 34395 hPa Calm     79 % 0 mm
01:42 -4.8 °C -6.8 °C 34395 hPa Calm     80 % 0 mm
01:52 -4.8 °C -6.8 °C 34395 hPa Calm     80 % 0 mm
02:02 -4.9 °C -6.9 °C 34395 hPa Calm     80 % 0 mm
02:07 -5.1 °C -7 °C 34395 hPa Calm     81 % 0 mm
02:12 -5.1 °C -6.8 °C 34395 hPa Calm     83 % 0 mm
02:17 -5.1 °C -6.8 °C 34395 hPa Calm     83 % 0 mm
02:22 -5.2 °C -6.8 °C 34395 hPa Calm     83 % 0 mm
02:27 -5.2 °C -6.8 °C 34395 hPa Calm     83 % 0 mm
02:32 -5.2 °C -6.8 °C 34395 hPa Calm     83 % 0 mm
02:37 -5.2 °C -6.8 °C 34395 hPa Calm     83 % 0 mm
02:42 -5.2 °C -6.8 °C 34395 hPa Calm     83 % 0 mm
02:47 -5.2 °C -6.8 °C 34395 hPa Calm     83 % 0 mm
02:52 -5.2 °C -6.9 °C 34395 hPa Calm     82 % 0 mm
03:02 -5.3 °C -7 °C 34395 hPa Calm     83 % 0 mm
03:12 -5.5 °C -7.1 °C 34395 hPa Calm     84 % 0 mm
03:17 -5.6 °C -7 °C 34384.8 hPa Calm     85 % 0 mm
03:22 -5.6 °C -7.1 °C 34384.8 hPa Calm     85 % 0 mm
03:32 -5.8 °C -7.1 °C 34384.8 hPa Calm     86 % 0 mm
03:42 -5.9 °C -7.2 °C 34384.8 hPa Calm     86 % 0 mm
03:47 -5.9 °C -7.3 °C 34384.8 hPa Calm     86 % 0 mm
03:52 -6 °C -7.3 °C 34384.8 hPa Calm     86 % 0 mm
03:57 -6.1 °C -7.3 °C 34384.8 hPa Calm     87 % 0 mm
04:02 -6.1 °C -7.4 °C 34384.8 hPa Calm     86 % 0 mm
04:12 -6 °C -7.4 °C 34384.8 hPa Calm     85 % 0 mm
04:17 -5.9 °C -7.5 °C 34384.8 hPa Calm     84 % 0 mm
04:22 -5.9 °C -7.5 °C 34384.8 hPa Calm     84 % 0 mm
04:32 -6.1 °C -7.6 °C 34384.8 hPa Calm     84 % 0 mm
04:42 -6.2 °C -7.7 °C 34384.8 hPa Calm     85 % 0 mm
04:47 -6.3 °C -7.7 °C 34384.8 hPa Calm     85 % 0 mm
04:52 -6.4 °C -7.8 °C 34384.8 hPa Calm     85 % 0 mm
05:02 -6.5 °C -7.9 °C 34384.8 hPa Calm     85 % 0 mm
05:12 -6.7 °C -7.9 °C 34384.8 hPa Calm     87 % 0 mm
05:17 -6.8 °C -7.9 °C 34371.3 hPa Calm     88 % 0 mm
05:22 -6.8 °C -7.9 °C 34384.8 hPa Calm     88 % 0 mm
05:32 -6.9 °C -8.1 °C 34384.8 hPa Calm     88 % 0 mm
05:42 -7.1 °C -8.2 °C 34384.8 hPa Calm     88 % 0 mm
05:52 -7.2 °C -8.2 °C 34384.8 hPa Calm     89 % 0 mm
06:02 -7.2 °C -8.2 °C 34384.8 hPa Calm     89 % 0 mm
06:12 -7.1 °C -8.2 °C 34395 hPa SSW 2.6 km/h   89 % 0 mm
06:17 -7 °C -8.1 °C 34395 hPa Calm   5.1 km/h 89 % 0 mm
06:22 -7.1 °C -8.2 °C 34395 hPa Calm   5.1 km/h 88 % 0 mm
06:32 -6.9 °C -7.9 °C 34384.8 hPa Calm   5.1 km/h 89 % 0 mm
06:42 -6.8 °C -7.9 °C 34395 hPa Calm   7.7 km/h 88 % 0 mm
06:47 -6.7 °C -7.9 °C 34395 hPa SSE 2.6 km/h 2.6 km/h 87 % 0 mm
06:52 -6.7 °C -7.9 °C 34395 hPa Calm   2.6 km/h 87 % 0 mm
07:02 -6.4 °C -7.8 °C 34395 hPa Calm   2.6 km/h 86 % 0 mm
07:12 -6.2 °C -7.8 °C 34395 hPa Calm   2.6 km/h 84 % 0 mm
07:17 -6.1 °C -7.6 °C 34395 hPa Calm     84 % 0 mm
07:22 -5.9 °C -7.6 °C 34395 hPa Calm     83 % 0 mm
07:32 -5.7 °C -7.3 °C 34395 hPa SW 2.6 km/h   83 % 0 mm
07:42 -5.6 °C -7.5 °C 34395 hPa SSW 2.6 km/h 2.6 km/h 81 % 0 mm
07:47 -5.6 °C -7.4 °C 34405.1 hPa SSW 2.6 km/h 2.6 km/h 82 % 0 mm
07:52 -5.6 °C -7.5 °C 34405.1 hPa Calm   2.6 km/h 81 % 0 mm
08:02 -5.4 °C -7.4 °C 34405.1 hPa Calm   7.7 km/h 80 % 0 mm
08:07 -5.3 °C -7.3 °C 34405.1 hPa SSW 2.6 km/h 7.7 km/h 80 % 0 mm
08:12 -5.2 °C -7.2 °C 34405.1 hPa Calm   7.7 km/h 80 % 0 mm
08:17 -5.1 °C -7.3 °C 34405.1 hPa SW 12.9 km/h 12.9 km/h 78 % 0 mm
08:22 -5.1 °C -7.3 °C 34405.1 hPa SSW 10.3 km/h 10.3 km/h 78 % 0 mm
08:32 -4.8 °C -7.1 °C 34405.1 hPa SSW 7.7 km/h 12.9 km/h 78 % 0 mm
08:42 -4.6 °C -7.1 °C 34418.7 hPa SSW 2.6 km/h 12.9 km/h 76 % 0 mm
08:47 -4.4 °C -7.2 °C 34418.7 hPa SW 20.8 km/h 20.8 km/h 73 % 0 mm
08:52 -4.3 °C -7.3 °C 34418.7 hPa South 10.3 km/h 18.2 km/h 72 % 0 mm
09:02 -4 °C -7.5 °C 34418.7 hPa South 10.3 km/h 25.9 km/h 68 % 0 mm
09:07 -3.9 °C -7.8 °C 34418.7 hPa SW 5.1 km/h 23.3 km/h 65 % 0 mm
09:12 -3.7 °C -7.6 °C 34418.7 hPa SW 5.1 km/h 23.3 km/h 65 % 0 mm
09:17 -3.6 °C -7.5 °C 34418.7 hPa SW 7.7 km/h 15.6 km/h 65 % 0 mm
09:22 -3.5 °C -7.8 °C 34418.7 hPa WSW 7.7 km/h 15.6 km/h 62 % 0 mm
09:32 -3.4 °C -7.9 °C 34428.8 hPa SW 12.9 km/h 23.3 km/h 61 % 0 mm
09:42 -3.2 °C -7.8 °C 34418.7 hPa SSW 10.3 km/h 25.9 km/h 60 % 0 mm
09:52 -3 °C -8.3 °C 34428.8 hPa West 20.8 km/h 23.3 km/h 56 % 0 mm
10:02 -2.9 °C -8 °C 34428.8 hPa SSW 2.6 km/h 28.5 km/h 57 % 0 mm
10:12 -2.6 °C -8.1 °C 34428.8 hPa WSW 15.6 km/h 28.5 km/h 55 % 0 mm
10:17 -2.5 °C -7.9 °C 34428.8 hPa South 10.3 km/h 23.3 km/h 55 % 0 mm
10:22 -2.4 °C -8.2 °C 34428.8 hPa SW 12.9 km/h 23.3 km/h 53 % 0 mm
10:27 -2.4 °C -7.9 °C 34428.8 hPa SW 18.2 km/h 23.3 km/h 55 % 0 mm
10:32 -2.4 °C -8.2 °C 34428.8 hPa SW 12.9 km/h 23.3 km/h 53 % 0 mm
10:42 -2.3 °C -8.7 °C 34428.8 hPa WSW 23.3 km/h 25.9 km/h 50 % 0 mm
10:47 -2.3 °C -8.8 °C 34428.8 hPa SW 25.9 km/h 28.5 km/h 49 % 0 mm
10:52 -2.3 °C -8.8 °C 34428.8 hPa West 10.3 km/h 28.5 km/h 49 % 0 mm
11:02 -2.1 °C -8.6 °C 34428.8 hPa West 7.7 km/h 36.2 km/h 49 % 0 mm
11:12 -2.1 °C -8.6 °C 34428.8 hPa SW 31.1 km/h 36.2 km/h 49 % 0 mm
11:17 -2.1 °C -9.1 °C 34428.8 hPa WSW 15.6 km/h 36.2 km/h 46 % 0 mm
11:22 -1.9 °C -9 °C 34428.8 hPa West 18.2 km/h 36.2 km/h 46 % 0 mm
11:32 -1.8 °C -8.5 °C 34428.8 hPa SSW 7.7 km/h 36.2 km/h 48 % 0 mm
11:42 -1.6 °C -8.9 °C 34428.8 hPa SW 15.6 km/h 36.2 km/h 45 % 0 mm
11:47 -1.4 °C -8.6 °C 34428.8 hPa WSW 12.9 km/h 31.1 km/h 46 % 0 mm
11:52 -1.3 °C -9 °C 34428.8 hPa SW 10.3 km/h 31.1 km/h 43 % 0 mm
12:02 -1.2 °C -9.2 °C 34428.8 hPa SSW 10.3 km/h 31.1 km/h 42 % 0 mm
12:12 -1 °C -9.8 °C 34428.8 hPa West 15.6 km/h 36.2 km/h 38 % 0 mm
12:17 -0.9 °C -9.6 °C 34428.8 hPa SW 12.9 km/h 33.6 km/h 39 % 0 mm
12:27 -0.8 °C -10.1 °C 34428.8 hPa SW 20.8 km/h 36.2 km/h 36 % 0 mm
12:32 -0.7 °C -10.6 °C 34428.8 hPa WSW 23.3 km/h 36.2 km/h 34 % 0 mm
12:42 -0.6 °C -11.2 °C 34418.7 hPa SW 10.3 km/h 38.8 km/h 31 % 0 mm
12:47 -0.5 °C -11.4 °C 34418.7 hPa WSW 33.6 km/h 38.8 km/h 30 % 0 mm
12:52 -0.4 °C -11.1 °C 34418.7 hPa SW 28.5 km/h 38.8 km/h 31 % 0 mm
13:02 -0.5 °C -10.8 °C 34418.7 hPa SW 20.8 km/h 41.4 km/h 32 % 0 mm
13:12 -0.4 °C -10.2 °C 34418.7 hPa West 23.3 km/h 44.1 km/h 34 % 0 mm
13:17 -0.3 °C -10.7 °C 34418.7 hPa West 18.2 km/h 38.8 km/h 32 % 0 mm
13:22 -0.2 °C -10.9 °C 34418.7 hPa WSW 10.3 km/h 38.8 km/h 31 % 0 mm
13:32 -0.2 °C -11.2 °C 34418.7 hPa SW 15.6 km/h 36.2 km/h 30 % 0 mm
13:37 -0.1 °C -11.1 °C 34418.7 hPa West 23.3 km/h 41.4 km/h 30 % 0 mm
13:42 -0.1 °C -10.7 °C 34418.7 hPa SW 15.6 km/h 41.4 km/h 31 % 0 mm
13:47 0.1 °C -11.2 °C 34405.1 hPa West 15.6 km/h 44.1 km/h 29 % 0 mm
13:52 0.1 °C -11.4 °C 34405.1 hPa West 25.9 km/h 44.1 km/h 28 % 0 mm
13:57 0 °C -11.6 °C 34418.7 hPa SW 10.3 km/h 44.1 km/h 28 % 0 mm
14:02 0 °C -11.8 °C 34405.1 hPa West 31.1 km/h 44.1 km/h 27 % 0 mm
14:07 0.1 °C -10.9 °C 34405.1 hPa WSW 28.5 km/h 44.1 km/h 30 % 0 mm
14:12 0.1 °C -11.8 °C 34405.1 hPa SSW 20.8 km/h 44.1 km/h 27 % 0 mm
14:17 0.2 °C -11.1 °C 34405.1 hPa WSW 23.3 km/h 38.8 km/h 29 % 0 mm
14:22 0.3 °C -11.3 °C 34405.1 hPa WSW 20.8 km/h 38.8 km/h 28 % 0 mm
14:32 0.4 °C -11.5 °C 34405.1 hPa SW 31.1 km/h 41.4 km/h 27 % 0 mm
14:37 0.4 °C -12.1 °C 34405.1 hPa WNW 18.2 km/h 36.2 km/h 25 % 0 mm
14:42 0.5 °C -11.4 °C 34405.1 hPa WSW 18.2 km/h 36.2 km/h 27 % 0 mm
14:47 0.6 °C -11.7 °C 34405.1 hPa WSW 23.3 km/h 38.8 km/h 26 % 0 mm
14:52 0.7 °C -11.6 °C 34405.1 hPa WNW 18.2 km/h 38.8 km/h 26 % 0 mm
15:02 0.8 °C -11.5 °C 34405.1 hPa West 15.6 km/h 38.8 km/h 26 % 0 mm
15:12 0.9 °C -11.7 °C 34405.1 hPa WSW 10.3 km/h 38.8 km/h 25 % 0 mm
15:17 0.9 °C -12.1 °C 34405.1 hPa West 20.8 km/h 38.8 km/h 24 % 0 mm
15:22 1 °C -12 °C 34395 hPa West 18.2 km/h 38.8 km/h 24 % 0 mm
15:27 1 °C -12.7 °C 34405.1 hPa SW 20.8 km/h 44.1 km/h 22 % 0 mm
15:32 1 °C -12 °C 34405.1 hPa WSW 12.9 km/h 44.1 km/h 24 % 0 mm
15:37 0.9 °C -12.1 °C 34405.1 hPa WSW 15.6 km/h 44.1 km/h 24 % 0 mm
15:42 0.9 °C -11.7 °C 34395 hPa SW 15.6 km/h 44.1 km/h 25 % 0 mm
15:47 1 °C -12 °C 34395 hPa West 23.3 km/h 41.4 km/h 24 % 0 mm
15:52 0.9 °C -11.7 °C 34395 hPa WSW 15.6 km/h 41.4 km/h 25 % 0 mm
15:57 0.9 °C -11.7 °C 34395 hPa West 15.6 km/h 36.2 km/h 25 % 0 mm
16:02 0.9 °C -11.7 °C 34395 hPa WSW 20.8 km/h 36.2 km/h 25 % 0 mm
16:12 1 °C -11 °C 34395 hPa West 20.8 km/h 36.2 km/h 27 % 0 mm
16:17 1.1 °C -10.9 °C 34395 hPa WSW 33.6 km/h 33.6 km/h 27 % 0 mm
16:22 0.9 °C -11.1 °C 34395 hPa West 28.5 km/h 33.6 km/h 27 % 0 mm
16:32 1.2 °C -10.9 °C 34384.8 hPa West 25.9 km/h 33.6 km/h 27 % 0 mm
16:42 1.1 °C -10.9 °C 34384.8 hPa WSW 15.6 km/h 31.1 km/h 27 % 0 mm
16:52 1.2 °C -10.9 °C 34384.8 hPa SW 20.8 km/h 28.5 km/h 27 % 0 mm
16:57 1 °C -10.7 °C 34384.8 hPa West 12.9 km/h 36.2 km/h 28 % 0 mm
17:02 1.1 °C -10.9 °C 34384.8 hPa WSW 10.3 km/h 36.2 km/h 27 % 0 mm
17:07 1.1 °C -10.9 °C 34384.8 hPa West 25.9 km/h 36.2 km/h 27 % 0 mm
17:12 1 °C -10.7 °C 34384.8 hPa WNW 10.3 km/h 36.2 km/h 28 % 0 mm
17:17 1.1 °C -10.3 °C 34384.8 hPa WNW 15.6 km/h 33.6 km/h 29 % 0 mm
17:27 1.1 °C -10.9 °C 34384.8 hPa West 18.2 km/h 36.2 km/h 27 % 0 mm
17:32 1.1 °C -10.7 °C 34384.8 hPa WSW 23.3 km/h 36.2 km/h 28 % 0 mm
17:42 1 °C -10.7 °C 34384.8 hPa West 15.6 km/h 38.8 km/h 28 % 0 mm
17:47 1 °C -10.7 °C 34384.8 hPa WSW 20.8 km/h 31.1 km/h 28 % 0 mm
17:52 1 °C -10.7 °C 34384.8 hPa West 23.3 km/h 31.1 km/h 28 % 0 mm
17:57 1 °C -10.7 °C 34384.8 hPa West 25.9 km/h 36.2 km/h 28 % 0 mm
18:02 0.9 °C -10.7 °C 34384.8 hPa West 25.9 km/h 36.2 km/h 28 % 0 mm
18:12 0.9 °C -11.1 °C 34384.8 hPa West 23.3 km/h 36.2 km/h 27 % 0 mm
18:17 0.9 °C -10.5 °C 34384.8 hPa West 12.9 km/h 36.2 km/h 29 % 0 mm
18:22 0.9 °C -10.8 °C 34384.8 hPa WSW 18.2 km/h 28.5 km/h 28 % 0 mm
18:32 0.9 °C -10.7 °C 34384.8 hPa West 7.7 km/h 28.5 km/h 28 % 0 mm
18:42 0.9 °C -10.5 °C 34384.8 hPa West 15.6 km/h 25.9 km/h 29 % 0 mm
18:47 0.8 °C -10.6 °C 34384.8 hPa West 18.2 km/h 31.1 km/h 29 % 0 mm
18:52 0.8 °C -10.6 °C 34384.8 hPa SW 10.3 km/h 31.1 km/h 29 % 0 mm
18:57 0.8 °C -10.3 °C 34384.8 hPa SW 10.3 km/h 31.1 km/h 30 % 0 mm
19:02 0.8 °C -10 °C 34384.8 hPa WSW 18.2 km/h 31.1 km/h 31 % 0 mm
19:07 0.8 °C -10.3 °C 34384.8 hPa SW 5.1 km/h 23.3 km/h 30 % 0 mm
19:12 0.8 °C -10 °C 34384.8 hPa SW 10.3 km/h 23.3 km/h 31 % 0 mm
19:17 0.8 °C -10 °C 34384.8 hPa West 5.1 km/h 23.3 km/h 31 % 0 mm
19:22 0.8 °C -10 °C 34384.8 hPa WNW 10.3 km/h 23.3 km/h 31 % 0 mm
19:32 0.7 °C -10.1 °C 34384.8 hPa SW 7.7 km/h 18.2 km/h 31 % 0 mm
19:37 0.7 °C -9.8 °C 34384.8 hPa West 7.7 km/h 15.6 km/h 32 % 0 mm
19:42 0.7 °C -9.8 °C 34384.8 hPa Calm   15.6 km/h 32 % 0 mm
19:52 0.7 °C -9.6 °C 34384.8 hPa West 5.1 km/h 15.6 km/h 33 % 0 mm
19:57 0.7 °C -9.6 °C 34384.8 hPa WSW 5.1 km/h 12.9 km/h 33 % 0 mm
20:02 0.6 °C -9.6 °C 34384.8 hPa Calm   12.9 km/h 33 % 0 mm
20:12 0.6 °C -9.4 °C 34384.8 hPa WSW 7.7 km/h 10.3 km/h 34 % 0 mm
20:17 0.4 °C -9.5 °C 34384.8 hPa Calm   10.3 km/h 34 % 0 mm
20:22 0.4 °C -9.6 °C 34384.8 hPa WSW 5.1 km/h 10.3 km/h 34 % 0 mm
20:32 0.2 °C -9.5 °C 34384.8 hPa Calm   12.9 km/h 35 % 0 mm
20:37 0.1 °C -9.3 °C 34384.8 hPa Calm   7.7 km/h 36 % 0 mm
20:42 0 °C -8.7 °C 34384.8 hPa Calm   7.7 km/h 39 % 0 mm
20:52 -0.3 °C -8.6 °C 34384.8 hPa Calm   2.6 km/h 41 % 0 mm
20:57 -0.6 °C -8.6 °C 34384.8 hPa Calm     42 % 0 mm
21:02 -0.7 °C -8.5 °C 34384.8 hPa Calm     43 % 0 mm
21:12 -1.1 °C -8.1 °C 34384.8 hPa Calm     47 % 0 mm
21:17 -1.5 °C -8.4 °C 34384.8 hPa Calm     47 % 0 mm
21:22 -1.8 °C -8.7 °C 34384.8 hPa Calm     47 % 0 mm
21:32 -2.1 °C -8.2 °C 34384.8 hPa West 2.6 km/h 2.6 km/h 51 % 0 mm
21:42 -2.4 °C -8.4 °C 34395 hPa Calm   5.1 km/h 52 % 0 mm
21:52 -2.7 °C -8.5 °C 34395 hPa Calm   5.1 km/h 53 % 0 mm
21:57 -2.8 °C -8.4 °C 34395 hPa Calm   2.6 km/h 54 % 0 mm
22:02 -3 °C -8.4 °C 34395 hPa Calm   2.6 km/h 55 % 0 mm
22:12 -3.2 °C -8.3 °C 34395 hPa Calm     57 % 0 mm
22:17 -3.3 °C -8.3 °C 34405.1 hPa Calm     58 % 0 mm
22:22 -3.4 °C -8.2 °C 34405.1 hPa WNW 2.6 km/h   59 % 0 mm
22:32 -3.7 °C -8.3 °C 34405.1 hPa Calm   2.6 km/h 60 % 0 mm
22:47 -3.9 °C -8.7 °C 34405.1 hPa Calm     59 % 0 mm
22:52 -3.9 °C -8.6 °C 34405.1 hPa Calm     60 % 0 mm
23:02 -4.1 °C -8.7 °C 34405.1 hPa Calm     60 % 0 mm
23:12 -4.2 °C -8.7 °C 34418.7 hPa Calm     61 % 0 mm
23:17 -4.3 °C -8.7 °C 34418.7 hPa Calm   2.6 km/h 61 % 0 mm
23:22 -4.3 °C -8.8 °C 34405.1 hPa Calm   2.6 km/h 61 % 0 mm
23:32 -4.4 °C -8.7 °C 34418.7 hPa Calm     62 % 0 mm
23:42 -4.6 °C -8.8 °C 34418.7 hPa Calm     62 % 0 mm
23:47 -4.6 °C -9 °C 34418.7 hPa Calm   2.6 km/h 61 % 0 mm
23:52 -4.6 °C -8.9 °C 34418.7 hPa SSW 5.1 km/h 5.1 km/h 62 % 0 mm
23:57 -4.7 °C -8.8 °C 34418.7 hPa South 2.6 km/h 5.1 km/h 63 % 0 mm
Meteo18
Compliments of Weather Underground - 4 mb

Script developed by  Jim McMurry - jmcmurry@mwt.net Adapted for the template by  Wim van der Kuil - Leuven-Template.eu

You find our weather info also at:

European Weather Network

Weather Underground

Equipment we use:

Weather-station
Davis Vue

Weather-program
Meteobridge

Weather-server
Raspberry PI 2 B+

Provider
1 and 1

Davis Vue

Meteobridge

Raspberry PI 2 B+

1 and 1